Time;durP1;ratioP1;P1;durP2;ratioP2;P2;SDS_P1;SDS_P2;PMS_P1;PMS_P2;Temp;Humidity;BMP_temperature;BMP_pressure;BME280_temperature;BME280_humidity;BME280_pressure;Samples;Min_cycle;Max_cycle;Signal;HPM_P1;HPM_P2
2023/05/31 00:01:32;;;;;;;4.05;2.90;;;16.30;96.20;;;;;;4994656;28;20484;-90
2023/05/31 00:03:57;;;;;;;6.03;3.03;;;16.30;96.20;;;;;;4979673;28;20449;-90
2023/05/31 00:06:23;;;;;;;6.13;3.60;;;16.20;96.30;;;;;;4978869;28;20034;-96
2023/05/31 00:08:49;;;;;;;8.88;3.40;;;16.20;96.30;;;;;;4979230;28;20121;-95
2023/05/31 00:11:15;;;;;;;6.18;3.47;;;16.20;96.40;;;;;;4995418;28;20082;-91
2023/05/31 00:13:41;;;;;;;6.65;3.42;;;16.10;96.40;;;;;;4978477;28;20062;-90
2023/05/31 00:16:09;;;;;;;6.10;3.25;;;16.10;96.50;;;;;;4978436;28;20034;-90
2023/05/31 00:18:34;;;;;;;8.57;3.63;;;16.10;96.60;;;;;;4978288;28;20113;-90
2023/05/31 00:21:00;;;;;;;5.78;3.00;;;16.10;96.80;;;;;;4978093;28;20065;-91
2023/05/31 00:23:26;;;;;;;5.57;3.75;;;16.10;96.90;;;;;;4994293;28;20027;-90
2023/05/31 00:25:52;;;;;;;4.97;3.25;;;16.10;97.00;;;;;;4979421;28;20034;-90
2023/05/31 00:28:17;;;;;;;8.02;3.70;;;16.00;97.00;;;;;;4983864;28;20482;-96
2023/05/31 00:30:44;;;;;;;6.13;3.35;;;16.00;97.00;;;;;;5001124;28;20034;-96
2023/05/31 00:33:11;;;;;;;5.10;3.35;;;16.00;97.10;;;;;;4987271;28;20035;-96
2023/05/31 00:35:37;;;;;;;5.40;3.40;;;16.00;97.20;;;;;;4984193;28;20082;-95
2023/05/31 00:38:06;;;;;;;8.63;4.10;;;15.90;97.30;;;;;;4997133;28;20031;-96
2023/05/31 00:40:33;;;;;;;6.82;4.20;;;15.90;97.40;;;;;;4982548;28;20022;-96
2023/05/31 00:42:59;;;;;;;6.75;3.88;;;15.90;97.40;;;;;;4981274;28;20022;-96
2023/05/31 00:45:25;;;;;;;7.70;4.35;;;15.90;97.50;;;;;;4979720;28;20415;-92
2023/05/31 00:47:51;;;;;;;8.18;4.25;;;15.80;97.60;;;;;;4985983;28;20027;-93
2023/05/31 00:50:17;;;;;;;7.35;4.00;;;15.80;97.70;;;;;;4977906;28;20471;-93
2023/05/31 00:52:50;;;;;;;7.60;4.07;;;15.80;97.80;;;;;;4981082;28;20077;-93
2023/05/31 00:55:16;;;;;;;8.38;4.55;;;15.80;97.90;;;;;;4997511;28;20026;-93
2023/05/31 00:57:42;;;;;;;7.40;4.25;;;15.80;98.00;;;;;;4981305;28;20042;-91
2023/05/31 01:00:08;;;;;;;8.02;4.40;;;15.80;98.10;;;;;;4997213;28;20038;-92
2023/05/31 01:02:41;;;;;;;7.97;3.92;;;15.70;98.10;;;;;;5006871;28;20032;-96
2023/05/31 01:05:10;;;;;;;8.85;4.32;;;15.70;98.20;;;;;;5011946;28;20023;-96
2023/05/31 01:07:37;;;;;;;7.35;3.92;;;15.70;98.30;;;;;;5006480;28;20093;-96
2023/05/31 01:10:05;;;;;;;7.75;4.15;;;15.70;98.30;;;;;;5004339;28;20018;-96
2023/05/31 01:13:11;;;;;;;6.57;4.15;;;15.70;98.40;;;;;;5003384;28;20042;-96
2023/05/31 01:15:51;;;;;;;12.00;4.70;;;15.70;98.50;;;;;;5007217;28;20023;-96
2023/05/31 01:18:26;;;;;;;6.10;4.03;;;15.60;98.50;;;;;;5001270;28;20034;-92
2023/05/31 01:20:57;;;;;;;6.20;4.22;;;15.60;98.60;;;;;;4998387;28;20031;-92
2023/05/31 01:23:44;;;;;;;8.77;5.25;;;15.60;98.80;;;;;;4996954;28;20109;-91
2023/05/31 01:26:22;;;;;;;7.18;4.60;;;15.50;98.90;;;;;;4997151;28;20054;-91
2023/05/31 01:28:53;;;;;;;9.40;4.82;;;15.50;98.90;;;;;;4997182;28;20033;-91
2023/05/31 01:31:21;;;;;;;9.32;5.28;;;15.50;99.10;;;;;;4997528;28;20061;-91
2023/05/31 01:33:50;;;;;;;8.77;4.68;;;15.50;99.20;;;;;;4996584;28;20076;-91
2023/05/31 01:36:15;;;;;;;7.95;4.75;;;15.40;99.20;;;;;;4979780;28;20020;-91
2023/05/31 01:38:41;;;;;;;7.97;4.93;;;15.40;99.30;;;;;;4996478;28;20108;-91
2023/05/31 01:41:08;;;;;;;8.40;5.10;;;15.40;99.50;;;;;;4980111;28;20043;-91
2023/05/31 01:43:37;;;;;;;8.50;5.20;;;15.30;99.50;;;;;;4996948;28;20041;-89
2023/05/31 01:46:04;;;;;;;10.20;5.47;;;15.30;99.60;;;;;;4982771;28;20034;-96
2023/05/31 01:48:31;;;;;;;9.05;5.60;;;15.30;99.80;;;;;;4982729;28;20391;-96
2023/05/31 01:50:58;;;;;;;11.52;5.72;;;15.30;99.80;;;;;;4998554;28;20023;-91
2023/05/31 01:53:25;;;;;;;8.30;5.00;;;15.30;99.90;;;;;;4999094;28;20483;-92
2023/05/31 01:55:51;;;;;;;10.68;5.18;;;15.20;99.90;;;;;;4999541;28;20168;-91
2023/05/31 01:58:19;;;;;;;10.13;6.38;;;15.20;99.90;;;;;;4983709;28;20080;-91
2023/05/31 02:00:45;;;;;;;10.63;6.10;;;15.20;99.90;;;;;;4999206;28;20105;-91
2023/05/31 02:03:11;;;;;;;10.07;6.22;;;15.20;99.90;;;;;;4999136;28;20029;-91
2023/05/31 02:05:37;;;;;;;12.35;6.78;;;15.20;99.90;;;;;;4983116;28;20033;-91
2023/05/31 02:08:03;;;;;;;11.43;7.30;;;15.10;99.90;;;;;;4982445;28;20033;-91
2023/05/31 02:10:28;;;;;;;12.15;6.88;;;15.10;99.90;;;;;;4999176;28;20045;-91
2023/05/31 02:12:54;;;;;;;12.32;7.30;;;15.10;99.90;;;;;;4981875;28;20057;-90
2023/05/31 02:15:20;;;;;;;10.85;6.47;;;15.10;99.90;;;;;;4998868;28;20022;-89
2023/05/31 02:17:50;;;;;;;12.52;7.10;;;15.10;99.90;;;;;;4982574;28;20389;-90
2023/05/31 02:20:17;;;;;;;11.57;7.15;;;15.10;99.90;;;;;;4983390;28;20475;-91
2023/05/31 02:22:45;;;;;;;12.13;6.97;;;15.10;99.90;;;;;;4983016;28;20033;-90
2023/05/31 02:25:12;;;;;;;11.55;7.10;;;15.10;99.90;;;;;;4983278;28;20026;-92
2023/05/31 02:27:39;;;;;;;12.30;7.45;;;15.10;99.90;;;;;;4999275;28;20026;-91
2023/05/31 02:30:06;;;;;;;12.50;7.20;;;15.10;99.90;;;;;;4998783;28;20018;-90
2023/05/31 02:32:38;;;;;;;14.90;7.25;;;15.10;99.90;;;;;;4999426;28;20028;-89
2023/05/31 02:35:09;;;;;;;11.07;6.95;;;15.00;99.90;;;;;;4982315;28;20052;-89
2023/05/31 02:37:39;;;;;;;11.70;6.82;;;15.00;99.90;;;;;;4998500;28;20034;-91
2023/05/31 02:40:08;;;;;;;12.23;7.82;;;15.00;99.90;;;;;;4982296;28;20120;-91
2023/05/31 02:42:42;;;;;;;13.27;7.25;;;15.00;99.90;;;;;;4998400;28;20021;-90
2023/05/31 02:45:09;;;;;;;12.02;7.78;;;15.00;99.90;;;;;;5019977;28;20029;-91
2023/05/31 02:47:37;;;;;;;12.32;7.75;;;15.00;99.90;;;;;;5019869;28;20026;-91
2023/05/31 02:50:04;;;;;;;14.52;7.63;;;15.00;99.90;;;;;;5020590;28;20010;-90
2023/05/31 02:52:30;;;;;;;12.02;7.13;;;15.00;99.90;;;;;;5003713;28;20100;-91
2023/05/31 02:54:56;;;;;;;13.32;7.25;;;14.90;99.90;;;;;;5019933;28;20022;-91
2023/05/31 02:57:22;;;;;;;14.65;8.48;;;14.90;99.90;;;;;;5004343;28;20026;-91
2023/05/31 02:59:49;;;;;;;12.15;8.05;;;14.90;99.90;;;;;;4993274;28;20029;-94
2023/05/31 03:02:17;;;;;;;14.00;8.43;;;14.90;99.90;;;;;;4985662;28;20097;-95
2023/05/31 03:04:44;;;;;;;12.60;7.95;;;14.90;99.90;;;;;;4982440;28;20045;-90
2023/05/31 03:07:10;;;;;;;12.52;7.95;;;14.90;99.90;;;;;;4981886;28;20022;-90
2023/05/31 03:09:36;;;;;;;13.15;8.68;;;14.80;99.90;;;;;;4982178;28;20102;-89
2023/05/31 03:12:02;;;;;;;12.77;7.78;;;14.80;99.90;;;;;;5003938;28;20029;-89
2023/05/31 03:14:29;;;;;;;12.38;7.80;;;14.80;99.90;;;;;;5017954;28;20101;-96
2023/05/31 03:16:55;;;;;;;14.27;8.05;;;14.80;99.90;;;;;;4983364;28;20087;-95
2023/05/31 03:19:20;;;;;;;11.38;8.27;;;14.70;99.90;;;;;;4984010;28;20121;-96
2023/05/31 03:21:46;;;;;;;14.90;8.55;;;14.70;99.90;;;;;;4983910;28;20030;-96
2023/05/31 03:24:12;;;;;;;15.77;8.50;;;14.70;99.90;;;;;;4986385;28;20482;-95
2023/05/31 03:26:37;;;;;;;13.65;8.73;;;14.70;99.90;;;;;;4988327;28;20112;-95
2023/05/31 03:29:03;;;;;;;13.77;8.05;;;14.70;99.90;;;;;;4987765;28;20475;-96
2023/05/31 03:31:29;;;;;;;16.63;8.60;;;14.70;99.90;;;;;;4987044;28;20094;-96
2023/05/31 03:33:55;;;;;;;16.63;9.40;;;14.60;99.90;;;;;;4987010;28;20043;-94
2023/05/31 03:36:21;;;;;;;22.02;9.45;;;14.60;99.90;;;;;;4986809;28;20390;-94
2023/05/31 03:38:46;;;;;;;15.43;8.98;;;14.60;99.90;;;;;;4986836;28;20030;-96
2023/05/31 03:41:12;;;;;;;13.35;8.15;;;14.60;99.90;;;;;;4986582;28;20401;-88
2023/05/31 03:43:37;;;;;;;13.30;8.38;;;14.60;99.90;;;;;;4985308;28;20060;-90
2023/05/31 03:46:03;;;;;;;14.93;8.90;;;14.60;99.90;;;;;;5001449;28;20029;-91
2023/05/31 03:48:29;;;;;;;20.05;10.45;;;14.50;99.90;;;;;;4986212;28;20372;-95
2023/05/31 03:50:56;;;;;;;14.93;8.90;;;14.50;99.90;;;;;;4973176;28;20116;-95
2023/05/31 03:53:22;;;;;;;17.10;9.20;;;14.50;99.90;;;;;;5004483;28;20057;-95
2023/05/31 03:55:48;;;;;;;17.58;9.05;;;14.50;99.90;;;;;;4991496;28;20030;-96
2023/05/31 03:58:14;;;;;;;17.15;9.75;;;14.50;99.90;;;;;;4997533;28;20026;-96
2023/05/31 04:00:41;;;;;;;12.85;8.50;;;14.50;99.90;;;;;;5012117;28;20026;-95
2023/05/31 04:03:07;;;;;;;15.00;9.07;;;14.50;99.90;;;;;;5001086;28;20089;-95
2023/05/31 04:05:36;;;;;;;14.48;8.93;;;14.50;99.90;;;;;;4995020;28;20064;-96
2023/05/31 04:08:01;;;;;;;16.70;9.65;;;14.40;99.90;;;;;;4986400;28;20034;-96
2023/05/31 04:10:27;;;;;;;15.02;8.90;;;14.40;99.90;;;;;;4988739;28;20164;-96
2023/05/31 04:12:53;;;;;;;15.00;9.43;;;14.40;99.90;;;;;;5002150;28;20018;-96
2023/05/31 04:15:19;;;;;;;14.95;9.18;;;14.40;99.90;;;;;;5001448;28;20491;-91
2023/05/31 04:17:45;;;;;;;16.13;9.55;;;14.40;99.90;;;;;;4984738;28;20069;-91
2023/05/31 04:20:12;;;;;;;14.52;9.63;;;14.40;99.90;;;;;;5000916;28;20070;-91
2023/05/31 04:22:38;;;;;;;18.75;9.95;;;14.40;99.90;;;;;;4984981;28;20124;-91
2023/05/31 04:25:04;;;;;;;16.83;9.80;;;14.40;99.90;;;;;;4984214;28;20050;-91
2023/05/31 04:27:33;;;;;;;14.15;9.32;;;14.40;99.90;;;;;;4999609;28;20042;-91
2023/05/31 04:30:00;;;;;;;15.52;10.07;;;14.40;99.90;;;;;;5000700;28;20026;-91
2023/05/31 04:32:27;;;;;;;16.27;9.25;;;14.40;99.90;;;;;;4984481;28;20476;-91
2023/05/31 04:34:57;;;;;;;17.15;9.20;;;14.40;99.90;;;;;;4983664;28;20471;-91
2023/05/31 04:37:28;;;;;;;13.73;8.87;;;14.40;99.90;;;;;;4984815;28;20026;-91
2023/05/31 04:39:54;;;;;;;20.23;9.77;;;14.40;99.90;;;;;;4983986;28;20037;-89
2023/05/31 04:42:20;;;;;;;15.13;9.48;;;14.40;99.90;;;;;;4984770;28;20034;-96
2023/05/31 04:44:46;;;;;;;18.10;9.93;;;14.40;99.90;;;;;;4987917;28;20125;-96
2023/05/31 04:47:15;;;;;;;13.82;9.63;;;14.40;99.90;;;;;;4991923;28;20124;-96
2023/05/31 04:49:41;;;;;;;16.17;9.60;;;14.40;99.90;;;;;;5005263;28;20014;-95
2023/05/31 04:52:09;;;;;;;17.23;9.98;;;14.40;99.90;;;;;;5004995;28;20077;-95
2023/05/31 04:54:35;;;;;;;19.35;11.80;;;14.40;99.90;;;;;;5003068;28;20030;-89
2023/05/31 04:57:01;;;;;;;18.63;9.98;;;14.40;99.90;;;;;;4986563;28;20022;-90
2023/05/31 04:59:26;;;;;;;16.23;9.75;;;14.40;99.90;;;;;;4991247;28;20553;-88
2023/05/31 05:01:52;;;;;;;16.30;10.13;;;14.40;99.90;;;;;;4987312;28;20034;-91
2023/05/31 05:04:18;;;;;;;16.70;10.63;;;14.40;99.90;;;;;;4969229;28;20117;-91
2023/05/31 05:06:44;;;;;;;18.20;10.40;;;14.40;99.90;;;;;;4964949;28;20526;-91
2023/05/31 05:09:09;;;;;;;22.02;10.88;;;14.40;99.90;;;;;;4968740;28;20037;-91
2023/05/31 05:11:35;;;;;;;17.10;11.13;;;14.40;99.90;;;;;;4968380;28;20022;-91
2023/05/31 05:14:01;;;;;;;16.88;10.95;;;14.40;99.90;;;;;;4983820;28;20049;-90
2023/05/31 05:16:27;;;;;;;18.15;10.60;;;14.50;99.90;;;;;;4983549;28;20072;-90
2023/05/31 05:18:52;;;;;;;17.85;11.57;;;14.50;99.90;;;;;;4967904;28;20036;-90
2023/05/31 05:21:18;;;;;;;18.60;11.93;;;14.50;99.90;;;;;;4999573;28;20525;-90
2023/05/31 05:23:44;;;;;;;18.23;11.48;;;14.50;99.90;;;;;;4999831;28;20117;-90
2023/05/31 05:26:11;;;;;;;16.90;10.98;;;14.50;99.90;;;;;;4969437;28;20022;-90
2023/05/31 05:28:40;;;;;;;18.05;10.80;;;14.50;99.90;;;;;;5006810;28;20030;-87
2023/05/31 05:31:05;;;;;;;19.38;11.35;;;14.50;99.90;;;;;;5013391;28;20033;-89
2023/05/31 05:33:31;;;;;;;18.63;11.27;;;14.60;99.90;;;;;;4979258;28;20149;-88
2023/05/31 05:35:56;;;;;;;18.52;12.27;;;14.60;99.90;;;;;;4999275;28;20033;-88
2023/05/31 05:38:22;;;;;;;20.33;11.35;;;14.60;99.90;;;;;;4980816;28;20064;-89
2023/05/31 05:40:48;;;;;;;15.10;10.60;;;14.60;99.90;;;;;;5000856;28;20130;-90
2023/05/31 05:43:14;;;;;;;16.67;10.68;;;14.60;99.90;;;;;;4970229;28;20093;-89
2023/05/31 05:45:40;;;;;;;17.50;10.70;;;14.60;99.90;;;;;;5001860;28;20028;-90
2023/05/31 05:48:05;;;;;;;22.45;11.02;;;14.70;99.90;;;;;;4983611;28;20057;-87
2023/05/31 05:50:31;;;;;;;20.25;11.35;;;14.70;99.90;;;;;;4983526;28;20038;-87
2023/05/31 05:52:57;;;;;;;16.85;11.43;;;14.70;99.90;;;;;;4996696;28;20053;-88
2023/05/31 05:55:23;;;;;;;17.00;10.85;;;14.70;99.90;;;;;;4982514;28;20039;-88
2023/05/31 05:57:51;;;;;;;15.65;10.75;;;14.70;99.90;;;;;;4966055;28;20117;-89
2023/05/31 06:00:17;;;;;;;17.60;10.38;;;14.80;99.90;;;;;;5000075;28;20104;-89
2023/05/31 06:02:43;;;;;;;17.48;10.98;;;14.80;99.90;;;;;;4979702;28;20026;-90
2023/05/31 06:05:09;;;;;;;17.48;9.65;;;14.80;99.90;;;;;;4980856;28;20037;-88
2023/05/31 06:07:35;;;;;;;19.90;10.95;;;14.90;99.90;;;;;;4964884;28;20117;-89
2023/05/31 06:10:02;;;;;;;16.30;10.25;;;14.90;99.90;;;;;;4981678;28;20383;-87
2023/05/31 06:12:29;;;;;;;16.65;9.57;;;15.00;99.90;;;;;;4981069;28;20033;-88
2023/05/31 06:14:55;;;;;;;16.00;9.20;;;15.00;99.90;;;;;;4966860;28;20502;-86
2023/05/31 06:17:21;;;;;;;13.98;9.23;;;15.00;99.90;;;;;;4995187;28;20030;-87
2023/05/31 06:19:47;;;;;;;14.52;10.30;;;15.00;99.90;;;;;;4965097;28;20031;-88
2023/05/31 06:22:13;;;;;;;17.63;10.00;;;15.10;99.90;;;;;;4995064;28;20026;-87
2023/05/31 06:24:40;;;;;;;15.45;9.10;;;15.10;99.90;;;;;;4962694;28;20033;-88
2023/05/31 06:27:06;;;;;;;13.07;7.88;;;15.20;99.90;;;;;;4994920;28;20022;-88
2023/05/31 06:29:32;;;;;;;14.05;9.32;;;15.20;99.90;;;;;;4976861;28;20030;-89
2023/05/31 06:31:58;;;;;;;15.32;8.40;;;15.20;99.90;;;;;;4978991;28;20113;-89
2023/05/31 06:34:23;;;;;;;14.68;8.73;;;15.30;99.90;;;;;;4995772;28;20383;-90
2023/05/31 06:36:49;;;;;;;15.27;8.82;;;15.40;99.90;;;;;;4981819;28;20026;-90
2023/05/31 06:39:15;;;;;;;14.57;8.25;;;15.40;99.90;;;;;;4981146;28;20019;-90
2023/05/31 06:41:40;;;;;;;13.48;7.90;;;15.40;99.90;;;;;;4965889;28;20057;-95
2023/05/31 06:44:06;;;;;;;15.70;7.53;;;15.40;99.90;;;;;;4967814;28;20433;-94
2023/05/31 06:46:33;;;;;;;15.65;7.97;;;15.50;99.90;;;;;;4964914;28;20030;-95
2023/05/31 06:49:01;;;;;;;12.70;7.22;;;15.50;99.90;;;;;;4964746;28;20030;-95
2023/05/31 06:51:27;;;;;;;14.75;7.18;;;15.60;99.90;;;;;;4981260;28;20027;-95
2023/05/31 06:53:52;;;;;;;12.90;7.65;;;15.60;99.90;;;;;;4983200;28;20037;-95
2023/05/31 06:56:18;;;;;;;12.63;6.55;;;15.70;99.90;;;;;;4987264;28;20057;-93
2023/05/31 06:58:45;;;;;;;12.82;7.70;;;15.70;99.90;;;;;;4987148;28;20026;-95
2023/05/31 07:01:11;;;;;;;12.88;6.75;;;15.80;99.90;;;;;;4977267;28;20034;-87
2023/05/31 07:03:37;;;;;;;11.93;6.75;;;15.80;99.90;;;;;;4983421;28;20527;-96
2023/05/31 07:06:02;;;;;;;13.10;6.57;;;15.90;99.90;;;;;;4983061;28;20076;-95
2023/05/31 07:08:28;;;;;;;17.00;7.40;;;15.90;99.90;;;;;;4974041;28;20026;-88
2023/05/31 07:10:55;;;;;;;12.95;6.55;;;16.00;99.90;;;;;;4999004;28;20077;-88
2023/05/31 07:13:22;;;;;;;13.52;6.68;;;16.00;99.90;;;;;;4983282;28;20010;-88
2023/05/31 07:15:48;;;;;;;12.25;6.65;;;16.10;99.90;;;;;;4994610;28;20161;-89
2023/05/31 07:18:14;;;;;;;17.13;7.00;;;16.10;99.90;;;;;;4984072;28;20026;-89
2023/05/31 07:20:39;;;;;;;12.90;6.35;;;16.20;99.90;;;;;;4988636;28;20485;-88
2023/05/31 07:23:05;;;;;;;12.98;7.10;;;16.30;99.90;;;;;;4982133;28;20467;-89
2023/05/31 07:25:31;;;;;;;12.07;7.05;;;16.30;99.90;;;;;;4983234;28;20026;-87
2023/05/31 07:27:56;;;;;;;14.07;6.72;;;16.40;99.90;;;;;;4983325;28;20045;-88
2023/05/31 07:30:23;;;;;;;13.45;6.75;;;16.50;99.90;;;;;;4984068;28;20022;-94
2023/05/31 07:32:49;;;;;;;13.18;6.60;;;16.50;99.90;;;;;;4983528;28;20080;-95
2023/05/31 07:35:15;;;;;;;17.60;7.20;;;16.60;99.90;;;;;;4984328;28;20391;-95
2023/05/31 07:37:40;;;;;;;13.88;7.00;;;16.60;99.90;;;;;;4988638;28;20034;-95
2023/05/31 07:40:07;;;;;;;10.60;6.35;;;16.70;99.90;;;;;;4995060;28;20026;-95
2023/05/31 07:42:33;;;;;;;13.82;6.65;;;16.70;99.90;;;;;;4985523;28;20398;-89
2023/05/31 07:44:59;;;;;;;9.95;5.68;;;16.80;99.90;;;;;;4997375;28;20028;-88
2023/05/31 07:47:24;;;;;;;13.63;6.30;;;16.90;99.90;;;;;;4981628;28;20092;-88
2023/05/31 07:49:51;;;;;;;13.95;6.70;;;16.90;99.90;;;;;;4998063;28;20026;-89
2023/05/31 07:52:21;;;;;;;12.13;5.88;;;17.00;99.90;;;;;;4981174;28;20057;-89
2023/05/31 07:54:50;;;;;;;15.93;6.72;;;17.10;99.90;;;;;;4982993;28;20439;-90
2023/05/31 07:57:16;;;;;;;15.63;6.95;;;17.10;99.90;;;;;;4998586;28;20065;-88
2023/05/31 07:59:42;;;;;;;11.65;6.13;;;17.20;99.90;;;;;;5016571;28;20049;-94
2023/05/31 08:02:08;;;;;;;12.98;5.95;;;17.30;99.90;;;;;;4993931;28;20460;-95
2023/05/31 08:04:34;;;;;;;12.35;5.93;;;17.30;99.90;;;;;;4985656;28;20025;-96
2023/05/31 08:07:00;;;;;;;11.98;6.15;;;17.40;99.90;;;;;;4984928;28;20042;-89
2023/05/31 08:09:32;;;;;;;12.15;5.53;;;17.50;99.90;;;;;;4982386;28;20116;-89
2023/05/31 08:11:58;;;;;;;11.80;5.07;;;17.60;99.90;;;;;;4988027;28;20034;-89
2023/05/31 08:14:23;;;;;;;8.95;5.20;;;17.60;99.90;;;;;;4985463;28;20022;-88
2023/05/31 08:16:51;;;;;;;9.68;4.70;;;17.70;99.90;;;;;;4985461;28;20026;-88
2023/05/31 08:19:17;;;;;;;16.50;5.95;;;17.80;99.90;;;;;;5001022;28;20022;-87
2023/05/31 08:21:45;;;;;;;10.45;5.13;;;17.80;99.90;;;;;;4984472;28;20022;-88
2023/05/31 08:24:10;;;;;;;9.18;5.38;;;17.90;99.90;;;;;;4985423;28;20044;-88
2023/05/31 08:26:36;;;;;;;9.38;5.00;;;18.00;99.90;;;;;;5000754;28;20097;-88
2023/05/31 08:29:02;;;;;;;13.63;4.40;;;18.00;99.90;;;;;;4984116;28;20368;-88
2023/05/31 08:31:27;;;;;;;11.52;5.38;;;18.10;99.90;;;;;;4984032;28;20030;-89
2023/05/31 08:34:00;;;;;;;9.52;4.40;;;18.20;99.90;;;;;;4985343;28;20219;-90
2023/05/31 08:36:26;;;;;;;12.60;4.65;;;18.30;99.90;;;;;;5001577;28;20026;-90
2023/05/31 08:38:52;;;;;;;9.55;4.55;;;18.30;99.90;;;;;;4984649;28;20490;-90
2023/05/31 08:41:19;;;;;;;8.93;4.28;;;18.40;99.90;;;;;;5001155;28;20033;-90
2023/05/31 08:43:48;;;;;;;7.90;3.88;;;18.50;99.90;;;;;;4985149;28;20030;-89
2023/05/31 08:46:19;;;;;;;7.43;3.67;;;18.60;99.90;;;;;;4986044;28;20036;-89
2023/05/31 08:48:53;;;;;;;10.40;3.85;;;18.60;99.90;;;;;;4986791;28;20117;-95
2023/05/31 08:51:19;;;;;;;9.75;3.72;;;18.70;99.90;;;;;;5003550;28;20018;-95
2023/05/31 08:53:46;;;;;;;10.88;4.18;;;18.80;99.90;;;;;;4986780;28;20034;-96
2023/05/31 08:56:13;;;;;;;7.43;3.47;;;18.80;99.90;;;;;;5003413;28;20101;-96
2023/05/31 08:58:42;;;;;;;9.43;3.60;;;18.90;99.90;;;;;;5002707;28;20021;-96
2023/05/31 09:01:08;;;;;;;11.93;3.70;;;19.00;99.90;;;;;;5003063;28;20493;-95
2023/05/31 09:03:34;;;;;;;9.48;3.70;;;19.00;99.90;;;;;;5003660;28;20052;-96
2023/05/31 09:06:00;;;;;;;14.50;4.32;;;19.10;99.90;;;;;;4984242;28;20124;-88
2023/05/31 09:08:26;;;;;;;10.25;3.80;;;19.20;99.90;;;;;;5000178;28;20095;-89
2023/05/31 09:10:52;;;;;;;7.43;4.22;;;19.20;99.90;;;;;;4984338;28;20034;-88
2023/05/31 09:13:19;;;;;;;9.80;3.78;;;19.30;99.90;;;;;;4984957;28;20034;-89
2023/05/31 09:15:48;;;;;;;9.95;3.80;;;19.30;99.90;;;;;;4985152;28;20105;-89
2023/05/31 09:18:15;;;;;;;9.35;3.70;;;19.40;99.90;;;;;;5000990;28;20561;-88
2023/05/31 09:20:41;;;;;;;8.55;3.65;;;19.50;99.90;;;;;;5001117;28;20033;-89
2023/05/31 09:23:08;;;;;;;6.53;3.05;;;19.60;99.90;;;;;;4985449;28;20044;-96
2023/05/31 09:25:51;;;;;;;7.43;3.38;;;19.60;99.90;;;;;;5019489;28;20093;-94
2023/05/31 09:28:21;;;;;;;14.10;3.88;;;19.70;99.90;;;;;;5003126;28;20076;-89
2023/05/31 09:31:04;;;;;;;9.10;4.10;;;19.80;99.90;;;;;;4984876;28;20015;-89
2023/05/31 09:33:45;;;;;;;12.52;3.83;;;19.80;99.90;;;;;;4983962;28;20281;-88
2023/05/31 09:36:12;;;;;;;9.70;3.60;;;19.90;99.90;;;;;;4999904;28;20022;-88
2023/05/31 09:38:39;;;;;;;8.65;3.63;;;19.90;99.90;;;;;;5001031;28;20124;-96
2023/05/31 09:41:17;;;;;;;9.50;3.22;;;20.00;99.90;;;;;;4986007;28;20030;-95
2023/05/31 09:43:45;;;;;;;9.20;3.85;;;20.10;99.90;;;;;;4987205;28;20033;-96
2023/05/31 09:46:12;;;;;;;8.73;3.78;;;20.20;99.90;;;;;;5003273;28;20376;-96
2023/05/31 09:48:38;;;;;;;12.05;3.70;;;20.20;99.90;;;;;;4986359;28;20026;-95
2023/05/31 09:51:08;;;;;;;9.32;3.45;;;20.30;99.90;;;;;;4986506;28;20089;-95
2023/05/31 09:53:44;;;;;;;10.87;3.37;;;20.40;99.90;;;;;;5002091;28;20044;-95
2023/05/31 09:56:18;;;;;;;9.98;3.65;;;20.50;99.90;;;;;;4983920;28;20026;-91
2023/05/31 09:58:44;;;;;;;7.50;3.10;;;20.60;99.90;;;;;;5000560;28;20026;-90
2023/05/31 10:01:11;;;;;;;8.55;3.20;;;20.60;99.90;;;;;;4999671;28;20088;-90
2023/05/31 10:03:38;;;;;;;9.77;2.83;;;20.70;99.90;;;;;;4984403;28;20026;-90
2023/05/31 10:06:04;;;;;;;8.63;3.30;;;20.70;99.90;;;;;;4984984;28;20061;-90
2023/05/31 10:08:35;;;;;;;6.75;2.85;;;20.80;99.90;;;;;;5007140;28;20121;-91
2023/05/31 10:11:01;;;;;;;12.00;3.33;;;20.90;99.90;;;;;;4987449;28;20038;-95
2023/05/31 10:13:31;;;;;;;6.28;2.50;;;20.90;99.90;;;;;;5006422;28;20085;-95
2023/05/31 10:16:05;;;;;;;8.05;2.30;;;21.00;99.90;;;;;;4987054;28;20018;-96
2023/05/31 10:18:33;;;;;;;7.57;2.55;;;21.10;99.90;;;;;;4988037;28;20495;-93
2023/05/31 10:21:04;;;;;;;7.60;2.33;;;21.20;99.90;;;;;;5003361;28;20030;-93
2023/05/31 10:23:35;;;;;;;8.88;2.50;;;21.30;99.90;;;;;;5001798;28;20026;-94
2023/05/31 10:26:10;;;;;;;;;;;21.30;99.90;;;;;;5001978;28;20132;-95
2023/05/31 10:29:08;;;;;;;7.30;2.55;;;21.40;99.90;;;;;;5002392;28;19909;-90
2023/05/31 10:31:40;;;;;;;7.82;2.78;;;21.40;99.80;;;;;;5000788;28;20069;-88
2023/05/31 10:34:23;;;;;;;6.10;2.25;;;21.50;99.60;;;;;;5001047;28;20029;-87
2023/05/31 10:36:51;;;;;;;7.40;2.55;;;21.60;98.90;;;;;;5000284;28;20049;-89
2023/05/31 10:39:46;;;;;;;11.35;2.53;;;21.60;98.70;;;;;;4984424;28;20428;-89
2023/05/31 10:42:33;;;;;;;6.03;2.58;;;21.70;98.70;;;;;;5001400;28;20026;-89
2023/05/31 10:45:18;;;;;;;5.75;2.65;;;21.80;98.20;;;;;;5001742;28;20162;-91
2023/05/31 10:47:58;;;;;;;5.40;2.30;;;21.80;98.00;;;;;;5000136;28;20120;-90
2023/05/31 10:50:25;;;;;;;9.32;2.55;;;21.90;98.10;;;;;;4994493;28;20076;-91
2023/05/31 10:52:51;;;;;;;6.85;2.33;;;21.90;98.10;;;;;;4980671;28;20046;-91
2023/05/31 10:55:18;;;;;;;6.35;2.72;;;22.00;97.90;;;;;;4966071;28;20030;-89
2023/05/31 10:57:49;;;;;;;7.43;2.30;;;22.00;97.70;;;;;;4965646;28;20026;-89
2023/05/31 11:00:19;;;;;;;8.30;2.53;;;22.20;97.40;;;;;;4982672;28;20473;-90
2023/05/31 11:02:55;;;;;;;6.25;2.55;;;22.20;97.20;;;;;;4981903;28;20026;-94
2023/05/31 11:05:27;;;;;;;8.52;2.45;;;22.20;97.30;;;;;;4982286;28;20026;-93
2023/05/31 11:07:54;;;;;;;7.88;2.90;;;22.30;97.50;;;;;;4982793;28;20097;-95
2023/05/31 11:10:34;;;;;;;6.88;2.65;;;22.40;97.50;;;;;;4966427;28;20023;-87
2023/05/31 11:13:04;;;;;;;8.32;3.10;;;22.40;97.50;;;;;;4980449;28;20419;-88
2023/05/31 11:15:44;;;;;;;7.50;2.75;;;22.50;97.40;;;;;;4979899;28;20381;-88
2023/05/31 11:18:23;;;;;;;10.60;2.97;;;22.50;97.00;;;;;;4982304;28;20026;-93
2023/05/31 11:20:49;;;;;;;7.95;2.63;;;22.60;96.70;;;;;;4974662;28;20432;-92
2023/05/31 11:23:31;;;;;;;8.98;2.70;;;22.60;96.40;;;;;;4966889;28;20033;-88
2023/05/31 11:26:23;;;;;;;7.82;2.42;;;22.70;95.80;;;;;;4963475;28;20522;-88
2023/05/31 11:28:59;;;;;;;8.48;3.08;;;22.80;95.60;;;;;;4959695;28;20045;-88
2023/05/31 11:31:49;;;;;;;7.75;2.40;;;22.80;95.50;;;;;;4995341;28;20034;-88
2023/05/31 11:34:20;;;;;;;8.77;2.65;;;22.90;95.20;;;;;;4977885;28;20049;-86
2023/05/31 11:36:49;;;;;;;;;;;22.90;95.20;;;;;;4978744;28;20081;-89
2023/05/31 11:39:19;;;;;;;7.22;2.53;;;23.00;95.10;;;;;;4962434;28;20008;-91
2023/05/31 11:41:45;;;;;;;9.77;2.88;;;23.00;95.10;;;;;;4978298;28;20031;-91
2023/05/31 11:44:11;;;;;;;6.53;2.88;;;23.10;94.50;;;;;;4963090;28;20025;-90
2023/05/31 11:46:41;;;;;;;8.27;2.60;;;23.20;94.30;;;;;;4966292;28;20424;-90
2023/05/31 11:49:10;;;;;;;9.52;2.60;;;23.20;94.10;;;;;;4981947;28;20113;-90
2023/05/31 11:51:38;;;;;;;6.97;2.10;;;23.30;93.60;;;;;;4966618;28;20022;-89
2023/05/31 11:54:04;;;;;;;12.95;2.95;;;23.30;93.40;;;;;;4968887;28;20049;-88
2023/05/31 11:56:32;;;;;;;11.45;2.90;;;23.40;93.30;;;;;;4951447;28;20026;-90
2023/05/31 11:58:59;;;;;;;7.10;2.97;;;23.50;93.10;;;;;;4968654;28;20033;-90
2023/05/31 12:01:25;;;;;;;5.88;2.83;;;23.50;93.10;;;;;;4966104;28;20554;-89
2023/05/31 12:04:00;;;;;;;5.15;2.40;;;23.60;93.10;;;;;;4949528;28;20026;-90
2023/05/31 12:06:26;;;;;;;7.03;2.88;;;23.60;92.90;;;;;;4981260;28;20085;-90
2023/05/31 12:08:55;;;;;;;7.70;2.60;;;23.70;93.00;;;;;;4952374;28;20035;-95
2023/05/31 12:11:25;;;;;;;9.32;2.88;;;23.80;92.90;;;;;;4969603;28;20113;-95
2023/05/31 12:13:54;;;;;;;9.15;2.60;;;23.80;92.40;;;;;;4971430;28;20498;-95
2023/05/31 12:16:20;;;;;;;8.65;3.05;;;23.90;92.30;;;;;;4970615;28;20026;-95
2023/05/31 12:18:49;;;;;;;7.25;2.70;;;23.90;92.40;;;;;;4977342;28;20034;-93
2023/05/31 12:21:16;;;;;;;7.32;2.53;;;24.00;92.40;;;;;;4985660;28;20026;-93
2023/05/31 12:23:52;;;;;;;9.70;2.70;;;24.00;92.30;;;;;;4985185;28;20030;-94
2023/05/31 12:26:18;;;;;;;7.65;2.85;;;24.00;92.10;;;;;;4951998;28;20038;-89
2023/05/31 12:28:45;;;;;;;9.25;2.88;;;24.10;91.80;;;;;;4965250;28;20030;-89
2023/05/31 12:31:10;;;;;;;6.40;2.55;;;24.20;91.70;;;;;;4981412;28;20030;-90
2023/05/31 12:33:36;;;;;;;8.73;2.67;;;24.20;91.80;;;;;;4950289;28;20053;-89
2023/05/31 12:36:03;;;;;;;7.18;2.70;;;24.20;91.70;;;;;;4950300;28;20510;-90
2023/05/31 12:38:31;;;;;;;6.40;2.63;;;24.30;91.70;;;;;;4966255;28;20022;-90
2023/05/31 12:41:01;;;;;;;6.25;2.92;;;24.30;91.30;;;;;;4950598;28;20027;-95
2023/05/31 12:43:28;;;;;;;7.32;2.33;;;24.40;91.10;;;;;;4966825;28;20476;-96
2023/05/31 12:45:53;;;;;;;8.07;3.00;;;24.40;91.10;;;;;;4966550;28;20038;-96